Pagina principale
METAR-TAF:

METAR-TAF

Aeroporti :

Aeroporto di Perugia

Perugia, Italia

latitudine: 43-05N, longitudine: 012-30E, altezza: 208 m

Osservazione

Il bollettino è stato emesso 37 minuti fa, alle 14:50 UTC
Vento 1 kt da direzioni variabili
Temperature 12°C
Umidità 100%
Pressione 1014 hPa
Visibilità 10 km o più
pioggia debole

METAR: LIRZ 061450Z AUTO VRB01KT 9999 -RA FEW040/// OVC066/// 12/12 Q1014

Ora: 16:27 (15:27 UTC)

Previsione

Il bollettino è stato emesso 4 ore e 27 minuti fa, alle 11:00 UTC
Previsione valida dal 06 alle 12 UTC al 07 alle 12 UTC
Vento 5 kt da direzioni variabili
Visibilità: 7000 m
Nuvoloso ad un'altezza di 4000 ft
Temporaneamente
dal 06 alle 12 UTC al 06 alle 18 UTC
pioggia
Temporaneamente
dal 06 alle 18 UTC al 07 alle 06 UTC
Visibilità: 2000 m
foschia
Temporaneamente
dal 07 alle 06 UTC al 07 alle 12 UTC
pioggia

TAF: LIRZ 061100Z 0612/0712 VRB05KT 7000 BKN040 TEMPO 0612/0618 RA TEMPO 0618/0706 2000 BR TEMPO 0706/0712 RA

Osservazioni e previsioni meteorologiche di più di 4000 aeroporti (messaggi METAR e TAF).

Le stazioni disponibili sono rappresentate dai dischi gialli e rossi sulla carta.

Puntare il mouse per vedere il nome della stazione.

Clicca sopra per visualizzare le osservazioni e previsioni meteorologiche.

Per cambiare la mappa : fare clic sui pulsanti verdi con una croce nera per ingrandire, il pulsante verde con un trattino per diminuire, o sulla freccia verde per le mappe adiacenti.


METAR-TAF: